sensor_id;sensor_type;location;lat;lon;timestamp;pressure;altitude;pressure_sealevel;temperature;humidity
72120;BME280;59993;53.052;18.576;2022-08-14T05:47:07;100610.44;;;19.25;83.53
72120;BME280;59993;53.052;18.576;2022-08-14T05:49:32;100605.44;;;19.30;83.10
72120;BME280;59993;53.052;18.576;2022-08-14T05:51:58;100610.31;;;19.43;82.71
72120;BME280;59993;53.052;18.576;2022-08-14T05:54:23;100610.47;;;19.49;81.83
72120;BME280;59993;53.052;18.576;2022-08-14T05:56:49;100611.16;;;19.60;82.02
72120;BME280;59993;53.052;18.576;2022-08-14T05:59:14;100616.72;;;19.75;80.74
72120;BME280;59993;53.052;18.576;2022-08-14T06:01:40;100611.34;;;19.99;80.09
72120;BME280;59993;53.052;18.576;2022-08-14T06:04:06;100612.13;;;20.41;78.09
72120;BME280;59993;53.052;18.576;2022-08-14T06:06:31;100607.44;;;20.91;76.25
72120;BME280;59993;53.052;18.576;2022-08-14T06:08:57;100611.50;;;20.87;75.50
72120;BME280;59993;53.052;18.576;2022-08-14T06:11:22;100618.09;;;21.16;75.75
72120;BME280;59993;53.052;18.576;2022-08-14T06:13:48;100596.25;;;21.02;75.43
72120;BME280;59993;53.052;18.576;2022-08-14T06:16:15;100602.44;;;21.42;74.93
72120;BME280;59993;53.052;18.576;2022-08-14T06:18:41;100601.72;;;21.48;73.41
72120;BME280;59993;53.052;18.576;2022-08-14T06:21:07;100601.72;;;21.72;73.33
72120;BME280;59993;53.052;18.576;2022-08-14T06:23:32;100606.63;;;21.68;73.03
72120;BME280;59993;53.052;18.576;2022-08-14T06:25:58;100602.41;;;21.89;72.57
72120;BME280;59993;53.052;18.576;2022-08-14T06:28:25;100595.53;;;22.39;71.88
72120;BME280;59993;53.052;18.576;2022-08-14T06:30:51;100600.31;;;22.29;71.15
72120;BME280;59993;53.052;18.576;2022-08-14T06:33:18;100601.22;;;21.91;72.35
72120;BME280;59993;53.052;18.576;2022-08-14T06:35:45;100596.31;;;21.72;72.91
72120;BME280;59993;53.052;18.576;2022-08-14T06:38:18;100604.00;;;21.60;73.78
72120;BME280;59993;53.052;18.576;2022-08-14T06:40:46;100602.56;;;21.72;73.92
72120;BME280;59993;53.052;18.576;2022-08-14T06:43:12;100598.97;;;21.57;74.10
72120;BME280;59993;53.052;18.576;2022-08-14T06:45:41;100603.78;;;21.85;73.54
72120;BME280;59993;53.052;18.576;2022-08-14T06:50:41;100586.03;;;22.43;71.27
72120;BME280;59993;53.052;18.576;2022-08-14T06:53:07;100593.19;;;22.51;70.52
72120;BME280;59993;53.052;18.576;2022-08-14T06:55:33;100595.78;;;22.74;70.10
72120;BME280;59993;53.052;18.576;2022-08-14T06:57:59;100581.66;;;23.09;69.84
72120;BME280;59993;53.052;18.576;2022-08-14T07:00:27;100578.69;;;23.03;70.12
72120;BME280;59993;53.052;18.576;2022-08-14T07:02:53;100577.97;;;23.10;69.53
72120;BME280;59993;53.052;18.576;2022-08-14T07:05:38;100576.81;;;23.40;69.03
72120;BME280;59993;53.052;18.576;2022-08-14T07:08:22;100564.63;;;23.51;67.92
72120;BME280;59993;53.052;18.576;2022-08-14T07:10:52;100564.13;;;23.63;68.50
72120;BME280;59993;53.052;18.576;2022-08-14T07:13:20;100567.47;;;24.21;66.92
72120;BME280;59993;53.052;18.576;2022-08-14T07:15:50;100561.13;;;24.36;65.85
72120;BME280;59993;53.052;18.576;2022-08-14T07:18:24;100562.22;;;24.13;66.41
72120;BME280;59993;53.052;18.576;2022-08-14T07:20:50;100562.56;;;24.38;65.62
72120;BME280;59993;53.052;18.576;2022-08-14T07:23:17;100563.72;;;24.57;64.77
72120;BME280;59993;53.052;18.576;2022-08-14T07:25:43;100553.06;;;24.49;65.08
72120;BME280;59993;53.052;18.576;2022-08-14T07:28:17;100555.31;;;24.45;65.17
72120;BME280;59993;53.052;18.576;2022-08-14T07:30:43;100547.97;;;24.68;63.70
72120;BME280;59993;53.052;18.576;2022-08-14T07:33:10;100552.88;;;24.51;64.50
72120;BME280;59993;53.052;18.576;2022-08-14T07:35:37;100547.81;;;24.47;64.29
72120;BME280;59993;53.052;18.576;2022-08-14T07:38:05;100558.16;;;24.65;63.30
72120;BME280;59993;53.052;18.576;2022-08-14T07:40:31;100554.84;;;25.52;60.50
72120;BME280;59993;53.052;18.576;2022-08-14T07:42:56;100559.00;;;25.61;59.52
72120;BME280;59993;53.052;18.576;2022-08-14T07:45:22;100554.38;;;25.28;60.65
72120;BME280;59993;53.052;18.576;2022-08-14T07:47:47;100553.59;;;25.61;59.45
72120;BME280;59993;53.052;18.576;2022-08-14T07:50:17;100560.63;;;25.29;60.48
72120;BME280;59993;53.052;18.576;2022-08-14T07:52:46;100550.66;;;25.43;59.13
72120;BME280;59993;53.052;18.576;2022-08-14T07:55:13;100543.28;;;25.23;60.91
72120;BME280;59993;53.052;18.576;2022-08-14T07:57:40;100536.84;;;25.24;60.75
72120;BME280;59993;53.052;18.576;2022-08-14T08:00:11;100539.97;;;25.21;62.06
72120;BME280;59993;53.052;18.576;2022-08-14T08:02:40;100535.41;;;25.35;60.76
72120;BME280;59993;53.052;18.576;2022-08-14T08:05:07;100531.66;;;25.83;59.52
72120;BME280;59993;53.052;18.576;2022-08-14T08:07:33;100532.09;;;26.00;58.30
72120;BME280;59993;53.052;18.576;2022-08-14T08:10:03;100530.53;;;26.31;57.56
72120;BME280;59993;53.052;18.576;2022-08-14T08:12:51;100526.03;;;25.78;58.95
72120;BME280;59993;53.052;18.576;2022-08-14T08:15:18;100518.53;;;25.53;59.86
72120;BME280;59993;53.052;18.576;2022-08-14T08:17:44;100529.78;;;25.70;58.73
72120;BME280;59993;53.052;18.576;2022-08-14T08:20:19;100530.63;;;25.44;59.22
72120;BME280;59993;53.052;18.576;2022-08-14T08:22:48;100530.00;;;25.68;58.21
72120;BME280;59993;53.052;18.576;2022-08-14T08:25:16;100527.28;;;25.68;58.39
72120;BME280;59993;53.052;18.576;2022-08-14T08:30:24;100514.31;;;26.11;56.80
72120;BME280;59993;53.052;18.576;2022-08-14T08:32:52;100517.25;;;25.89;57.78
72120;BME280;59993;53.052;18.576;2022-08-14T08:35:20;100513.47;;;25.90;57.99
72120;BME280;59993;53.052;18.576;2022-08-14T08:37:47;100515.91;;;26.32;56.62
72120;BME280;59993;53.052;18.576;2022-08-14T08:40:23;100512.38;;;26.76;55.29
72120;BME280;59993;53.052;18.576;2022-08-14T17:03:07;100280.75;;;21.63;100.00
72120;BME280;59993;53.052;18.576;2022-08-14T17:05:38;100288.06;;;21.85;99.27
72120;BME280;59993;53.052;18.576;2022-08-14T17:11:19;100291.19;;;22.03;97.10
72120;BME280;59993;53.052;18.576;2022-08-14T17:13:25;100286.41;;;21.83;98.45
72120;BME280;59993;53.052;18.576;2022-08-14T17:18:49;100281.66;;;22.29;93.09
72120;BME280;59993;53.052;18.576;2022-08-14T17:21:28;100272.28;;;22.03;96.69
72120;BME280;59993;53.052;18.576;2022-08-14T17:23:56;100277.88;;;22.02;94.62
72120;BME280;59993;53.052;18.576;2022-08-14T17:26:41;100274.34;;;22.23;93.46
72120;BME280;59993;53.052;18.576;2022-08-14T17:29:15;100277.34;;;21.91;95.36
72120;BME280;59993;53.052;18.576;2022-08-14T17:31:43;100280.75;;;22.00;97.64
72120;BME280;59993;53.052;18.576;2022-08-14T17:34:10;100268.91;;;21.79;98.72
72120;BME280;59993;53.052;18.576;2022-08-14T17:36:36;100258.44;;;21.70;100.00
72120;BME280;59993;53.052;18.576;2022-08-14T17:39:14;100265.41;;;21.64;100.00
72120;BME280;59993;53.052;18.576;2022-08-14T17:41:42;100266.53;;;21.70;100.00
72120;BME280;59993;53.052;18.576;2022-08-14T17:44:10;100260.22;;;21.62;100.00
72120;BME280;59993;53.052;18.576;2022-08-14T17:46:40;100264.28;;;21.58;100.00
72120;BME280;59993;53.052;18.576;2022-08-14T17:49:16;100265.50;;;21.56;100.00
72120;BME280;59993;53.052;18.576;2022-08-14T17:52:11;100269.25;;;21.55;100.00
72120;BME280;59993;53.052;18.576;2022-08-14T17:54:42;100264.75;;;21.47;100.00
72120;BME280;59993;53.052;18.576;2022-08-14T17:57:18;100262.63;;;21.42;100.00
72120;BME280;59993;53.052;18.576;2022-08-14T17:59:45;100271.09;;;21.39;100.00
72120;BME280;59993;53.052;18.576;2022-08-14T18:02:14;100260.31;;;21.39;100.00
72120;BME280;59993;53.052;18.576;2022-08-14T18:04:40;100252.31;;;21.31;100.00
72120;BME280;59993;53.052;18.576;2022-08-14T18:07:08;100253.31;;;21.30;100.00
72120;BME280;59993;53.052;18.576;2022-08-14T18:09:39;100250.34;;;21.25;100.00
72120;BME280;59993;53.052;18.576;2022-08-14T18:12:05;100254.06;;;21.24;100.00
72120;BME280;59993;53.052;18.576;2022-08-14T18:14:32;100246.72;;;21.18;100.00
72120;BME280;59993;53.052;18.576;2022-08-14T18:16:59;100246.34;;;21.21;100.00
72120;BME280;59993;53.052;18.576;2022-08-14T18:19:27;100250.66;;;21.15;100.00
72120;BME280;59993;53.052;18.576;2022-08-14T18:21:55;100249.72;;;21.08;100.00
72120;BME280;59993;53.052;18.576;2022-08-14T18:24:22;100253.53;;;21.14;100.00
72120;BME280;59993;53.052;18.576;2022-08-14T18:26:52;100249.59;;;21.01;100.00
72120;BME280;59993;53.052;18.576;2022-08-14T18:29:20;100257.03;;;20.99;100.00
72120;BME280;59993;53.052;18.576;2022-08-14T18:31:46;100263.44;;;20.83;100.00
72120;BME280;59993;53.052;18.576;2022-08-14T18:34:17;100261.47;;;20.92;100.00
72120;BME280;59993;53.052;18.576;2022-08-14T18:36:49;100263.44;;;20.83;100.00
72120;BME280;59993;53.052;18.576;2022-08-14T18:39:28;100263.81;;;20.80;100.00
72120;BME280;59993;53.052;18.576;2022-08-14T18:42:37;100275.06;;;20.84;100.00
72120;BME280;59993;53.052;18.576;2022-08-14T18:52:45;100271.16;;;20.63;100.00
72120;BME280;59993;53.052;18.576;2022-08-14T19:02:54;100262.38;;;20.69;100.00
72120;BME280;59993;53.052;18.576;2022-08-14T19:10:48;100269.56;;;20.54;100.00
72120;BME280;59993;53.052;18.576;2022-08-14T19:13:15;100264.84;;;20.56;100.00
72120;BME280;59993;53.052;18.576;2022-08-14T19:16:19;100268.72;;;20.53;100.00
72120;BME280;59993;53.052;18.576;2022-08-14T19:18:50;100275.66;;;20.48;100.00
72120;BME280;59993;53.052;18.576;2022-08-14T19:21:36;100271.84;;;20.42;100.00
72120;BME280;59993;53.052;18.576;2022-08-14T19:26:46;100270.03;;;20.34;100.00
72120;BME280;59993;53.052;18.576;2022-08-14T19:31:54;100266.72;;;20.32;100.00
72120;BME280;59993;53.052;18.576;2022-08-14T19:34:39;100272.16;;;20.24;100.00
72120;BME280;59993;53.052;18.576;2022-08-14T19:37:06;100264.09;;;20.24;100.00
72120;BME280;59993;53.052;18.576;2022-08-14T19:42:20;100263.31;;;20.15;100.00
72120;BME280;59993;53.052;18.576;2022-08-14T19:44:46;100259.78;;;20.15;100.00
72120;BME280;59993;53.052;18.576;2022-08-14T19:47:12;100253.56;;;20.14;99.64
72120;BME280;59993;53.052;18.576;2022-08-14T19:49:39;100253.00;;;20.19;99.41
72120;BME280;59993;53.052;18.576;2022-08-14T19:52:05;100255.94;;;20.09;99.22
72120;BME280;59993;53.052;18.576;2022-08-14T19:54:33;100248.63;;;19.95;99.96
72120;BME280;59993;53.052;18.576;2022-08-14T19:56:59;100252.13;;;20.03;99.77
72120;BME280;59993;53.052;18.576;2022-08-14T19:59:24;100266.56;;;20.02;100.00
72120;BME280;59993;53.052;18.576;2022-08-14T20:01:51;100256.34;;;19.98;99.22
72120;BME280;59993;53.052;18.576;2022-08-14T20:04:23;100249.34;;;19.88;100.00
72120;BME280;59993;53.052;18.576;2022-08-14T20:06:50;100247.69;;;19.87;99.11
72120;BME280;59993;53.052;18.576;2022-08-14T20:09:15;100253.59;;;19.75;100.00
72120;BME280;59993;53.052;18.576;2022-08-14T20:11:43;100249.06;;;19.75;100.00
72120;BME280;59993;53.052;18.576;2022-08-14T20:14:11;100248.22;;;19.75;100.00
72120;BME280;59993;53.052;18.576;2022-08-14T20:16:53;100234.75;;;19.83;100.00
72120;BME280;59993;53.052;18.576;2022-08-14T20:19:24;100245.25;;;19.61;100.00
72120;BME280;59993;53.052;18.576;2022-08-14T20:30:21;100244.97;;;19.56;100.00
72120;BME280;59993;53.052;18.576;2022-08-14T20:32:48;100239.44;;;19.49;100.00
72120;BME280;59993;53.052;18.576;2022-08-14T20:38:10;100238.97;;;19.46;100.00
72120;BME280;59993;53.052;18.576;2022-08-14T20:40:47;100244.31;;;19.54;99.11
72120;BME280;59993;53.052;18.576;2022-08-14T20:48:59;100255.13;;;19.38;99.83
72120;BME280;59993;53.052;18.576;2022-08-14T20:51:37;100258.78;;;19.45;99.03
72120;BME280;59993;53.052;18.576;2022-08-14T20:54:28;100259.09;;;19.50;97.74
72120;BME280;59993;53.052;18.576;2022-08-14T20:57:05;100255.09;;;19.46;97.50
72120;BME280;59993;53.052;18.576;2022-08-14T20:59:37;100261.47;;;19.45;98.23
72120;BME280;59993;53.052;18.576;2022-08-14T21:02:31;100264.16;;;19.45;98.00
72120;BME280;59993;53.052;18.576;2022-08-14T21:05:05;100260.13;;;19.49;97.79
72120;BME280;59993;53.052;18.576;2022-08-14T21:07:31;100252.41;;;19.46;97.96
72120;BME280;59993;53.052;18.576;2022-08-14T21:10:11;100248.53;;;19.48;97.75
72120;BME280;59993;53.052;18.576;2022-08-14T21:12:37;100241.00;;;19.44;97.46
72120;BME280;59993;53.052;18.576;2022-08-14T21:15:08;100246.38;;;19.44;97.28
72120;BME280;59993;53.052;18.576;2022-08-14T21:17:33;100243.03;;;19.33;97.69
72120;BME280;59993;53.052;18.576;2022-08-14T21:19:59;100250.06;;;19.43;97.91
72120;BME280;59993;53.052;18.576;2022-08-14T21:22:26;100246.38;;;19.35;97.02
72120;BME280;59993;53.052;18.576;2022-08-14T21:24:52;100251.09;;;19.33;97.03
72120;BME280;59993;53.052;18.576;2022-08-14T21:27:18;100243.41;;;19.30;97.67
72120;BME280;59993;53.052;18.576;2022-08-14T21:29:43;100239.38;;;19.26;97.05
72120;BME280;59993;53.052;18.576;2022-08-14T21:32:09;100251.16;;;19.25;98.06
72120;BME280;59993;53.052;18.576;2022-08-14T21:34:35;100255.53;;;19.18;98.02
72120;BME280;59993;53.052;18.576;2022-08-14T21:37:02;100245.09;;;19.23;98.38
72120;BME280;59993;53.052;18.576;2022-08-14T21:39:29;100249.47;;;19.16;98.03
72120;BME280;59993;53.052;18.576;2022-08-14T21:41:55;100245.59;;;19.27;97.63
72120;BME280;59993;53.052;18.576;2022-08-14T21:44:23;100250.13;;;19.26;97.96
72120;BME280;59993;53.052;18.576;2022-08-14T21:46:53;100245.09;;;19.23;98.65
72120;BME280;59993;53.052;18.576;2022-08-14T21:49:24;100247.78;;;19.23;97.90
72120;BME280;59993;53.052;18.576;2022-08-14T21:51:53;100247.59;;;19.25;98.16
72120;BME280;59993;53.052;18.576;2022-08-14T21:54:24;100236.69;;;19.26;98.26
72120;BME280;59993;53.052;18.576;2022-08-14T21:56:50;100236.72;;;19.18;98.05
72120;BME280;59993;53.052;18.576;2022-08-14T21:59:20;100230.31;;;19.27;97.78
72120;BME280;59993;53.052;18.576;2022-08-14T22:01:51;100225.28;;;19.24;98.12
72120;BME280;59993;53.052;18.576;2022-08-14T22:04:17;100220.59;;;19.18;99.66
72120;BME280;59993;53.052;18.576;2022-08-14T22:06:43;100213.06;;;19.13;99.24
72120;BME280;59993;53.052;18.576;2022-08-14T22:09:10;100218.91;;;19.17;98.91
72120;BME280;59993;53.052;18.576;2022-08-14T22:11:36;100229.03;;;19.07;100.00
72120;BME280;59993;53.052;18.576;2022-08-14T22:14:03;100229.34;;;19.12;99.94
72120;BME280;59993;53.052;18.576;2022-08-14T22:16:29;100231.88;;;19.05;100.00
72120;BME280;59993;53.052;18.576;2022-08-14T22:18:55;100233.16;;;19.26;98.63
72120;BME280;59993;53.052;18.576;2022-08-14T22:21:21;100228.66;;;19.10;100.00
72120;BME280;59993;53.052;18.576;2022-08-14T22:23:47;100232.03;;;19.12;100.00
72120;BME280;59993;53.052;18.576;2022-08-14T22:26:13;100227.53;;;19.04;100.00
72120;BME280;59993;53.052;18.576;2022-08-14T22:28:40;100228.19;;;19.06;100.00
72120;BME280;59993;53.052;18.576;2022-08-14T22:31:11;100234.75;;;19.04;100.00
72120;BME280;59993;53.052;18.576;2022-08-14T22:33:39;100242.44;;;19.15;100.00
72120;BME280;59993;53.052;18.576;2022-08-14T22:36:05;100234.03;;;19.10;100.00
72120;BME280;59993;53.052;18.576;2022-08-14T22:38:50;100229.03;;;19.07;100.00
72120;BME280;59993;53.052;18.576;2022-08-14T22:41:16;100228.31;;;19.13;100.00
72120;BME280;59993;53.052;18.576;2022-08-14T22:43:46;100218.25;;;19.15;100.00
72120;BME280;59993;53.052;18.576;2022-08-14T22:46:12;100218.78;;;19.10;100.00
72120;BME280;59993;53.052;18.576;2022-08-14T22:48:37;100227.38;;;19.06;100.00
72120;BME280;59993;53.052;18.576;2022-08-14T22:51:03;100218.13;;;19.00;100.00
72120;BME280;59993;53.052;18.576;2022-08-14T22:53:28;100220.00;;;18.91;100.00
72120;BME280;59993;53.052;18.576;2022-08-14T22:55:54;100227.03;;;19.00;100.00
72120;BME280;59993;53.052;18.576;2022-08-14T22:58:19;100219.31;;;18.97;100.00
72120;BME280;59993;53.052;18.576;2022-08-14T23:00:46;100223.84;;;18.97;100.00
72120;BME280;59993;53.052;18.576;2022-08-14T23:03:13;100222.69;;;18.99;100.00
72120;BME280;59993;53.052;18.576;2022-08-14T23:05:40;100213.13;;;18.97;100.00
72120;BME280;59993;53.052;18.576;2022-08-14T23:08:09;100212.78;;;19.00;100.00
72120;BME280;59993;53.052;18.576;2022-08-14T23:10:37;100216.44;;;18.99;100.00
72120;BME280;59993;53.052;18.576;2022-08-14T23:13:04;100217.78;;;19.03;100.00
72120;BME280;59993;53.052;18.576;2022-08-14T23:15:31;100217.94;;;19.10;100.00
72120;BME280;59993;53.052;18.576;2022-08-14T23:17:58;100210.91;;;19.00;100.00
72120;BME280;59993;53.052;18.576;2022-08-14T23:20:24;100214.59;;;19.08;100.00
72120;BME280;59993;53.052;18.576;2022-08-14T23:22:52;100210.38;;;19.05;100.00
72120;BME280;59993;53.052;18.576;2022-08-14T23:25:24;100197.97;;;19.04;100.00
72120;BME280;59993;53.052;18.576;2022-08-14T23:27:50;100207.41;;;19.00;100.00
72120;BME280;59993;53.052;18.576;2022-08-14T23:30:19;100210.03;;;19.08;100.00
72120;BME280;59993;53.052;18.576;2022-08-14T23:32:45;100215.75;;;19.05;100.00
72120;BME280;59993;53.052;18.576;2022-08-14T23:35:12;100208.56;;;18.97;100.00
72120;BME280;59993;53.052;18.576;2022-08-14T23:37:38;100210.91;;;19.00;100.00
72120;BME280;59993;53.052;18.576;2022-08-14T23:40:04;100202.16;;;19.07;100.00
72120;BME280;59993;53.052;18.576;2022-08-14T23:42:29;100208.56;;;19.06;100.00
72120;BME280;59993;53.052;18.576;2022-08-14T23:44:55;100212.28;;;18.96;100.00
72120;BME280;59993;53.052;18.576;2022-08-14T23:47:22;100204.88;;;18.98;100.00
72120;BME280;59993;53.052;18.576;2022-08-14T23:49:48;100206.41;;;19.01;100.00
72120;BME280;59993;53.052;18.576;2022-08-14T23:52:14;100210.03;;;19.08;100.00
72120;BME280;59993;53.052;18.576;2022-08-14T23:54:39;100203.06;;;18.91;100.00
72120;BME280;59993;53.052;18.576;2022-08-14T23:57:06;100203.22;;;18.89;100.00
72120;BME280;59993;53.052;18.576;2022-08-14T23:59:31;100201.88;;;18.85;100.00
